Wheatland, CA (95692)

2:38 PM PDT on August 30, 2014 (GMT -0700)
Wheatland Ranch | Change Station
CLOSE
Current Station
Personal Weather Station
Location: Wheatland, CA
Elevation: 82 ft
Nearby Weather Stations

Elev 82 ft 39.02 °N, 121.41 °W | Updated 8 minutes ago

Clear
Clear
95.2 °F
Feels Like 93 °F
N
4.7
Wind Variable Wind from South

Today
High -- | Low -- °F
--% Chance of Precip.
Yesterday
High -- | Low -- °F
Precip. -- in
6:32 AM 7:39 PM
Waxing Crescent, 25% visible
Pressure 30.04 in
Visibility 9.0 miles
Clouds Clear
Heat Index 93 °F
Dew Point 54 °F
Humidity 25%
Rainfall 0.00 in
Snow Depth Not available.
UV 9 out of 12
Pollen 9.20 out of 12
Ozone Good
Flu Activity Not available.
METAR KBAB 302058Z AUTO 19005KT 9SM CLR 32/09 A2982 RMK AO2 SLP171 60000 T03230085 57016 $

More Conditions Fewer Conditions

Pressure 30.04 in
Visibility 9.0 miles
Clouds Clear
Heat Index 93 °F
Dew Point 54 °F
Humidity 25%
Rainfall 0.00 in
Snow Depth Not available.
UV 9 out of 12
Pollen 9.20 out of 12
Ozone Good
Flu Activity Not available.
METAR KBAB 302058Z AUTO 19005KT 9SM CLR 32/09 A2982 RMK AO2 SLP171 60000 T03230085 57016 $

More Conditions Fewer Conditions

10-Day Weather Forecast

Almanac

Astronomy

Aug. 30, 2014 Rise Set
Actual Time 6:32 AM PDT 7:39 PM PDT
Civil Twilight 6:05 AM PDT 8:06 PM PDT
Nautical Twilight 5:32 AM PDT 8:39 PM PDT
Astronomical Twilight 4:58 AM PDT 9:13 PM PDT
Moon 11:22 AM PDT 10:19 PM PDT
Length of Visible Light 14h 01m
Length of Day
13h 06m
Tomorrow will be 2m 25s shorter.
Waxing Crescent, 25% of the Moon is Illuminated
Today
Waxing Crescent
Sep 2
First Quarter
Sep 8
Full
Sep 15
Last Quarter
Sep 24
New

Today's Extremes

State Highs State Lows

Community

WunderPhotos

Upload Photos

1,748,647 photos uploaded!

WunderBlogs® & News

Nearby

Air Quality

  Air Quality AQ Index Pollutant
Yesterday Moderate
OZONE
Current Good
OZONE
Saturday Moderate
OZONE
Sunday Moderate
OZONE
Monday Moderate
OZONE
Tuesday Moderate
OZONE
Wednesday Moderate
OZONE

Snow Depth

Station Depth Elevation
CSS Lab 2 in 6900 ft
Rubicon #2 0 in 7500 ft
Echo Peak 0 in 7800 ft
Fallen Leaf 0 in 6300 ft
Leavitt Meadows 1 in 7200 ft

Earthquake Activity

City Distance Mag. Time & Date
The Geysers, California 76 miles 2.7 2:53 PM PDT
2014-08-29
Minimum magnitude displayed is 2.5.

Coastal Water Temperatures

Place Temperature
No Stations Reporting

Nearby Weather Stations